sensor_id;sensor_type;location;lat;lon;timestamp;temperature;humidity
12254;DHT22;6189;52.526;13.390;2022-09-21T00:00:39;11.50;99.90
12254;DHT22;6189;52.526;13.390;2022-09-21T00:03:27;11.50;99.90
12254;DHT22;6189;52.526;13.390;2022-09-21T00:06:14;11.40;99.90
12254;DHT22;6189;52.526;13.390;2022-09-21T00:09:00;11.40;99.90
12254;DHT22;6189;52.526;13.390;2022-09-21T00:11:46;11.40;99.90
12254;DHT22;6189;52.526;13.390;2022-09-21T00:14:32;11.40;99.90
12254;DHT22;6189;52.526;13.390;2022-09-21T00:17:18;11.30;99.90
12254;DHT22;6189;52.526;13.390;2022-09-21T00:20:05;11.20;99.90
12254;DHT22;6189;52.526;13.390;2022-09-21T00:22:51;11.20;99.90
12254;DHT22;6189;52.526;13.390;2022-09-21T00:25:37;11.10;99.90
12254;DHT22;6189;52.526;13.390;2022-09-21T00:28:23;11.10;99.90
12254;DHT22;6189;52.526;13.390;2022-09-21T00:31:11;11.10;99.90
12254;DHT22;6189;52.526;13.390;2022-09-21T00:33:58;11.10;99.90
12254;DHT22;6189;52.526;13.390;2022-09-21T00:36:45;11.10;99.90
12254;DHT22;6189;52.526;13.390;2022-09-21T00:39:30;11.20;99.90
12254;DHT22;6189;52.526;13.390;2022-09-21T00:42:17;11.20;99.90
12254;DHT22;6189;52.526;13.390;2022-09-21T00:45:04;11.20;99.90
12254;DHT22;6189;52.526;13.390;2022-09-21T00:47:51;11.10;99.90
12254;DHT22;6189;52.526;13.390;2022-09-21T00:50:41;11.10;99.90
12254;DHT22;6189;52.526;13.390;2022-09-21T00:53:30;11.00;99.90
12254;DHT22;6189;52.526;13.390;2022-09-21T00:56:16;11.10;99.90
12254;DHT22;6189;52.526;13.390;2022-09-21T00:59:04;11.00;99.90
12254;DHT22;6189;52.526;13.390;2022-09-21T01:01:50;10.90;99.90
12254;DHT22;6189;52.526;13.390;2022-09-21T01:04:36;10.90;99.90
12254;DHT22;6189;52.526;13.390;2022-09-21T01:07:25;10.90;99.90
12254;DHT22;6189;52.526;13.390;2022-09-21T01:10:16;10.90;99.90
12254;DHT22;6189;52.526;13.390;2022-09-21T01:13:07;11.00;99.90
12254;DHT22;6189;52.526;13.390;2022-09-21T01:16:02;11.00;99.90
12254;DHT22;6189;52.526;13.390;2022-09-21T01:18:55;11.00;99.90
12254;DHT22;6189;52.526;13.390;2022-09-21T01:21:48;11.00;99.90
12254;DHT22;6189;52.526;13.390;2022-09-21T01:24:49;11.00;99.90
12254;DHT22;6189;52.526;13.390;2022-09-21T01:27:48;11.00;99.90
12254;DHT22;6189;52.526;13.390;2022-09-21T01:30:40;11.00;99.90
12254;DHT22;6189;52.526;13.390;2022-09-21T01:33:31;11.10;99.90
12254;DHT22;6189;52.526;13.390;2022-09-21T01:36:22;11.00;99.90
12254;DHT22;6189;52.526;13.390;2022-09-21T01:39:11;11.00;99.90
12254;DHT22;6189;52.526;13.390;2022-09-21T01:41:58;11.00;99.90
12254;DHT22;6189;52.526;13.390;2022-09-21T01:44:44;10.90;99.90
12254;DHT22;6189;52.526;13.390;2022-09-21T01:47:33;11.10;99.90
12254;DHT22;6189;52.526;13.390;2022-09-21T01:50:20;10.90;99.90
12254;DHT22;6189;52.526;13.390;2022-09-21T01:53:10;10.90;99.90
12254;DHT22;6189;52.526;13.390;2022-09-21T01:56:00;10.90;99.90
12254;DHT22;6189;52.526;13.390;2022-09-21T01:58:51;10.90;99.90
12254;DHT22;6189;52.526;13.390;2022-09-21T02:01:42;10.80;99.90
12254;DHT22;6189;52.526;13.390;2022-09-21T02:04:33;10.90;99.90
12254;DHT22;6189;52.526;13.390;2022-09-21T02:07:19;10.90;99.90
12254;DHT22;6189;52.526;13.390;2022-09-21T02:10:07;11.00;99.90
12254;DHT22;6189;52.526;13.390;2022-09-21T02:12:55;10.90;99.90
12254;DHT22;6189;52.526;13.390;2022-09-21T02:15:54;10.90;99.90
12254;DHT22;6189;52.526;13.390;2022-09-21T02:18:52;10.90;99.90
12254;DHT22;6189;52.526;13.390;2022-09-21T02:21:52;11.00;99.90
12254;DHT22;6189;52.526;13.390;2022-09-21T02:24:42;11.00;99.90
12254;DHT22;6189;52.526;13.390;2022-09-21T02:27:33;11.00;99.90
12254;DHT22;6189;52.526;13.390;2022-09-21T02:30:23;10.90;99.90
12254;DHT22;6189;52.526;13.390;2022-09-21T02:33:12;11.00;99.90
12254;DHT22;6189;52.526;13.390;2022-09-21T02:36:04;10.90;99.90
12254;DHT22;6189;52.526;13.390;2022-09-21T02:38:55;10.90;99.90
12254;DHT22;6189;52.526;13.390;2022-09-21T02:41:57;10.80;99.90
12254;DHT22;6189;52.526;13.390;2022-09-21T02:44:51;10.70;99.90
12254;DHT22;6189;52.526;13.390;2022-09-21T02:47:44;10.60;99.90
12254;DHT22;6189;52.526;13.390;2022-09-21T02:50:34;10.60;99.90
12254;DHT22;6189;52.526;13.390;2022-09-21T02:53:25;10.60;99.90
12254;DHT22;6189;52.526;13.390;2022-09-21T02:56:14;10.60;99.90
12254;DHT22;6189;52.526;13.390;2022-09-21T02:59:02;10.60;99.90
12254;DHT22;6189;52.526;13.390;2022-09-21T03:01:48;10.60;99.90
12254;DHT22;6189;52.526;13.390;2022-09-21T03:04:34;10.70;99.90
12254;DHT22;6189;52.526;13.390;2022-09-21T03:07:20;10.70;99.90
12254;DHT22;6189;52.526;13.390;2022-09-21T03:10:06;10.70;99.90
12254;DHT22;6189;52.526;13.390;2022-09-21T03:12:57;10.70;99.90
12254;DHT22;6189;52.526;13.390;2022-09-21T03:15:43;10.70;99.90
12254;DHT22;6189;52.526;13.390;2022-09-21T03:18:30;10.80;99.90
12254;DHT22;6189;52.526;13.390;2022-09-21T03:21:16;10.80;99.90
12254;DHT22;6189;52.526;13.390;2022-09-21T03:24:01;10.60;99.90
12254;DHT22;6189;52.526;13.390;2022-09-21T03:26:47;10.50;99.90
12254;DHT22;6189;52.526;13.390;2022-09-21T03:29:34;10.40;99.90
12254;DHT22;6189;52.526;13.390;2022-09-21T03:32:20;10.50;99.90
12254;DHT22;6189;52.526;13.390;2022-09-21T03:35:06;10.50;99.90
12254;DHT22;6189;52.526;13.390;2022-09-21T03:37:52;10.40;99.90
12254;DHT22;6189;52.526;13.390;2022-09-21T03:40:38;10.50;99.90
12254;DHT22;6189;52.526;13.390;2022-09-21T03:43:24;10.60;99.90
12254;DHT22;6189;52.526;13.390;2022-09-21T03:46:11;10.50;99.90
12254;DHT22;6189;52.526;13.390;2022-09-21T03:48:56;10.50;99.90
12254;DHT22;6189;52.526;13.390;2022-09-21T03:51:41;10.50;99.90
12254;DHT22;6189;52.526;13.390;2022-09-21T03:54:27;10.40;99.90
12254;DHT22;6189;52.526;13.390;2022-09-21T03:57:13;10.40;99.90
12254;DHT22;6189;52.526;13.390;2022-09-21T03:59:59;10.30;99.90
12254;DHT22;6189;52.526;13.390;2022-09-21T04:02:48;10.20;99.90
12254;DHT22;6189;52.526;13.390;2022-09-21T04:05:33;10.30;99.90
12254;DHT22;6189;52.526;13.390;2022-09-21T04:08:19;10.40;99.90
12254;DHT22;6189;52.526;13.390;2022-09-21T04:11:08;10.50;99.90
12254;DHT22;6189;52.526;13.390;2022-09-21T04:13:54;10.40;99.90
12254;DHT22;6189;52.526;13.390;2022-09-21T04:16:40;10.40;99.90
12254;DHT22;6189;52.526;13.390;2022-09-21T04:19:27;10.50;99.90
12254;DHT22;6189;52.526;13.390;2022-09-21T04:22:13;10.40;99.90
12254;DHT22;6189;52.526;13.390;2022-09-21T04:24:58;10.50;99.90
12254;DHT22;6189;52.526;13.390;2022-09-21T04:27:44;10.50;99.90
12254;DHT22;6189;52.526;13.390;2022-09-21T04:30:30;10.50;99.90
12254;DHT22;6189;52.526;13.390;2022-09-21T04:33:16;10.40;99.90
12254;DHT22;6189;52.526;13.390;2022-09-21T04:36:03;10.30;99.90
12254;DHT22;6189;52.526;13.390;2022-09-21T04:38:49;10.30;99.90
12254;DHT22;6189;52.526;13.390;2022-09-21T04:41:35;10.30;99.90
12254;DHT22;6189;52.526;13.390;2022-09-21T04:44:21;10.20;99.90
12254;DHT22;6189;52.526;13.390;2022-09-21T04:47:06;10.10;99.90
12254;DHT22;6189;52.526;13.390;2022-09-21T04:49:52;10.20;99.90
12254;DHT22;6189;52.526;13.390;2022-09-21T04:52:39;10.20;99.90
12254;DHT22;6189;52.526;13.390;2022-09-21T04:55:25;10.30;99.90
12254;DHT22;6189;52.526;13.390;2022-09-21T04:58:10;10.30;99.90
12254;DHT22;6189;52.526;13.390;2022-09-21T05:00:56;10.20;99.90
12254;DHT22;6189;52.526;13.390;2022-09-21T05:03:42;10.20;99.90
12254;DHT22;6189;52.526;13.390;2022-09-21T05:06:27;10.20;99.90
12254;DHT22;6189;52.526;13.390;2022-09-21T05:09:14;10.30;99.90
12254;DHT22;6189;52.526;13.390;2022-09-21T05:12:18;10.20;99.90
12254;DHT22;6189;52.526;13.390;2022-09-21T05:15:04;10.20;99.90
12254;DHT22;6189;52.526;13.390;2022-09-21T05:17:50;10.20;99.90
12254;DHT22;6189;52.526;13.390;2022-09-21T05:20:35;10.10;99.90
12254;DHT22;6189;52.526;13.390;2022-09-21T05:23:21;10.10;99.90
12254;DHT22;6189;52.526;13.390;2022-09-21T05:26:07;10.10;99.90
12254;DHT22;6189;52.526;13.390;2022-09-21T05:28:54;10.10;99.90
12254;DHT22;6189;52.526;13.390;2022-09-21T05:31:44;10.10;99.90
12254;DHT22;6189;52.526;13.390;2022-09-21T05:34:40;10.10;99.90
12254;DHT22;6189;52.526;13.390;2022-09-21T05:37:40;10.10;99.90
12254;DHT22;6189;52.526;13.390;2022-09-21T05:40:29;10.10;99.90
12254;DHT22;6189;52.526;13.390;2022-09-21T05:43:16;10.10;99.90
12254;DHT22;6189;52.526;13.390;2022-09-21T05:46:11;10.10;99.90
12254;DHT22;6189;52.526;13.390;2022-09-21T05:49:01;10.10;99.90
12254;DHT22;6189;52.526;13.390;2022-09-21T05:51:55;10.20;99.90
12254;DHT22;6189;52.526;13.390;2022-09-21T05:54:52;10.10;99.90
12254;DHT22;6189;52.526;13.390;2022-09-21T05:57:48;10.20;99.90
12254;DHT22;6189;52.526;13.390;2022-09-21T06:00:41;10.20;99.90
12254;DHT22;6189;52.526;13.390;2022-09-21T06:03:31;10.30;99.90
12254;DHT22;6189;52.526;13.390;2022-09-21T06:06:19;10.40;99.90
12254;DHT22;6189;52.526;13.390;2022-09-21T06:09:05;10.40;99.90
12254;DHT22;6189;52.526;13.390;2022-09-21T06:11:50;10.50;99.90
12254;DHT22;6189;52.526;13.390;2022-09-21T06:14:37;10.60;99.90
12254;DHT22;6189;52.526;13.390;2022-09-21T06:17:24;10.60;99.90
12254;DHT22;6189;52.526;13.390;2022-09-21T06:20:10;10.70;99.90
12254;DHT22;6189;52.526;13.390;2022-09-21T06:22:59;10.60;99.90
12254;DHT22;6189;52.526;13.390;2022-09-21T06:25:50;10.70;99.90
12254;DHT22;6189;52.526;13.390;2022-09-21T06:28:36;10.70;99.90
12254;DHT22;6189;52.526;13.390;2022-09-21T06:31:21;10.60;99.90
12254;DHT22;6189;52.526;13.390;2022-09-21T06:34:08;10.70;99.90
12254;DHT22;6189;52.526;13.390;2022-09-21T06:36:54;10.70;99.90
12254;DHT22;6189;52.526;13.390;2022-09-21T06:39:39;10.80;99.90
12254;DHT22;6189;52.526;13.390;2022-09-21T06:42:26;10.70;99.90
12254;DHT22;6189;52.526;13.390;2022-09-21T06:45:11;10.70;99.90
12254;DHT22;6189;52.526;13.390;2022-09-21T06:47:57;10.70;99.90
12254;DHT22;6189;52.526;13.390;2022-09-21T06:50:44;10.70;99.90
12254;DHT22;6189;52.526;13.390;2022-09-21T06:53:31;10.70;99.90
12254;DHT22;6189;52.526;13.390;2022-09-21T06:56:17;10.80;99.90
12254;DHT22;6189;52.526;13.390;2022-09-21T06:59:03;10.90;99.90
12254;DHT22;6189;52.526;13.390;2022-09-21T07:01:48;10.90;99.90
12254;DHT22;6189;52.526;13.390;2022-09-21T07:04:34;11.00;99.90
12254;DHT22;6189;52.526;13.390;2022-09-21T07:07:21;11.10;99.90
12254;DHT22;6189;52.526;13.390;2022-09-21T07:10:07;11.10;99.90
12254;DHT22;6189;52.526;13.390;2022-09-21T07:12:53;11.10;99.90
12254;DHT22;6189;52.526;13.390;2022-09-21T07:15:38;11.00;99.90
12254;DHT22;6189;52.526;13.390;2022-09-21T07:18:24;11.10;99.90
12254;DHT22;6189;52.526;13.390;2022-09-21T07:21:10;11.00;99.90
12254;DHT22;6189;52.526;13.390;2022-09-21T07:23:59;11.00;99.90
12254;DHT22;6189;52.526;13.390;2022-09-21T07:26:45;11.10;99.90
12254;DHT22;6189;52.526;13.390;2022-09-21T07:29:31;11.30;99.90
12254;DHT22;6189;52.526;13.390;2022-09-21T07:32:16;11.20;99.90
12254;DHT22;6189;52.526;13.390;2022-09-21T07:35:03;11.30;99.90
12254;DHT22;6189;52.526;13.390;2022-09-21T07:37:48;11.30;99.90
12254;DHT22;6189;52.526;13.390;2022-09-21T07:40:35;11.30;99.90
12254;DHT22;6189;52.526;13.390;2022-09-21T07:43:21;11.40;99.90
12254;DHT22;6189;52.526;13.390;2022-09-21T07:46:06;11.50;99.90
12254;DHT22;6189;52.526;13.390;2022-09-21T07:48:52;11.60;99.90
12254;DHT22;6189;52.526;13.390;2022-09-21T07:51:38;11.60;99.90
12254;DHT22;6189;52.526;13.390;2022-09-21T07:54:24;11.70;99.90
12254;DHT22;6189;52.526;13.390;2022-09-21T07:57:11;11.80;99.90
12254;DHT22;6189;52.526;13.390;2022-09-21T08:00:14;11.90;99.90
12254;DHT22;6189;52.526;13.390;2022-09-21T08:03:00;11.90;99.90
12254;DHT22;6189;52.526;13.390;2022-09-21T08:05:46;11.90;99.90
12254;DHT22;6189;52.526;13.390;2022-09-21T08:08:31;11.90;99.90
12254;DHT22;6189;52.526;13.390;2022-09-21T08:11:18;12.00;99.90
12254;DHT22;6189;52.526;13.390;2022-09-21T08:14:06;12.10;99.90
12254;DHT22;6189;52.526;13.390;2022-09-21T08:16:52;12.20;99.90
12254;DHT22;6189;52.526;13.390;2022-09-21T08:19:37;12.20;99.90
12254;DHT22;6189;52.526;13.390;2022-09-21T08:22:23;12.30;99.90
12254;DHT22;6189;52.526;13.390;2022-09-21T08:25:09;12.40;99.90
12254;DHT22;6189;52.526;13.390;2022-09-21T08:27:57;12.60;99.90
12254;DHT22;6189;52.526;13.390;2022-09-21T08:30:45;12.70;99.90
12254;DHT22;6189;52.526;13.390;2022-09-21T08:33:30;12.70;99.90
12254;DHT22;6189;52.526;13.390;2022-09-21T08:36:16;12.70;99.90
12254;DHT22;6189;52.526;13.390;2022-09-21T08:39:05;12.80;99.90
12254;DHT22;6189;52.526;13.390;2022-09-21T08:42:00;12.80;99.90
12254;DHT22;6189;52.526;13.390;2022-09-21T08:44:50;12.80;99.90
12254;DHT22;6189;52.526;13.390;2022-09-21T08:47:41;12.80;99.90
12254;DHT22;6189;52.526;13.390;2022-09-21T08:50:32;12.80;99.90
12254;DHT22;6189;52.526;13.390;2022-09-21T08:53:21;13.00;99.90
12254;DHT22;6189;52.526;13.390;2022-09-21T08:56:10;13.00;99.90
12254;DHT22;6189;52.526;13.390;2022-09-21T08:58:56;13.10;99.90
12254;DHT22;6189;52.526;13.390;2022-09-21T09:01:53;13.20;99.90
12254;DHT22;6189;52.526;13.390;2022-09-21T09:04:52;13.40;99.90
12254;DHT22;6189;52.526;13.390;2022-09-21T09:07:53;13.50;99.90
12254;DHT22;6189;52.526;13.390;2022-09-21T09:10:52;13.60;99.90
12254;DHT22;6189;52.526;13.390;2022-09-21T09:14:04;13.60;99.90
12254;DHT22;6189;52.526;13.390;2022-09-21T09:17:01;13.70;99.90
12254;DHT22;6189;52.526;13.390;2022-09-21T09:19:55;13.90;99.90
12254;DHT22;6189;52.526;13.390;2022-09-21T09:22:44;13.90;99.90
12254;DHT22;6189;52.526;13.390;2022-09-21T09:25:35;14.00;99.90
12254;DHT22;6189;52.526;13.390;2022-09-21T09:28:27;14.10;99.90
12254;DHT22;6189;52.526;13.390;2022-09-21T09:31:18;14.20;99.90
12254;DHT22;6189;52.526;13.390;2022-09-21T09:34:10;14.20;99.90
12254;DHT22;6189;52.526;13.390;2022-09-21T09:37:04;14.00;99.90
12254;DHT22;6189;52.526;13.390;2022-09-21T09:39:54;13.90;99.90
12254;DHT22;6189;52.526;13.390;2022-09-21T09:42:49;14.00;99.90
12254;DHT22;6189;52.526;13.390;2022-09-21T09:45:48;14.10;99.90
12254;DHT22;6189;52.526;13.390;2022-09-21T09:48:53;14.30;99.90
12254;DHT22;6189;52.526;13.390;2022-09-21T09:51:42;14.50;99.90
12254;DHT22;6189;52.526;13.390;2022-09-21T09:54:33;14.80;99.90
12254;DHT22;6189;52.526;13.390;2022-09-21T09:57:26;15.10;99.90
12254;DHT22;6189;52.526;13.390;2022-09-21T10:00:13;15.40;99.90
12254;DHT22;6189;52.526;13.390;2022-09-21T10:03:00;15.60;99.90
12254;DHT22;6189;52.526;13.390;2022-09-21T10:05:45;15.80;99.90
12254;DHT22;6189;52.526;13.390;2022-09-21T10:08:42;16.00;99.90
12254;DHT22;6189;52.526;13.390;2022-09-21T10:11:37;16.50;99.90
12254;DHT22;6189;52.526;13.390;2022-09-21T10:14:24;16.80;99.90
12254;DHT22;6189;52.526;13.390;2022-09-21T10:17:15;17.00;99.90
12254;DHT22;6189;52.526;13.390;2022-09-21T10:20:04;17.20;99.90
12254;DHT22;6189;52.526;13.390;2022-09-21T10:22:53;17.50;99.90
12254;DHT22;6189;52.526;13.390;2022-09-21T10:25:40;17.80;99.90
12254;DHT22;6189;52.526;13.390;2022-09-21T10:28:28;18.00;99.90
12254;DHT22;6189;52.526;13.390;2022-09-21T10:31:18;18.20;99.90
12254;DHT22;6189;52.526;13.390;2022-09-21T10:34:12;18.30;99.90
12254;DHT22;6189;52.526;13.390;2022-09-21T10:36:59;18.50;99.90
12254;DHT22;6189;52.526;13.390;2022-09-21T10:39:45;18.60;99.90
12254;DHT22;6189;52.526;13.390;2022-09-21T10:42:35;18.80;99.90
12254;DHT22;6189;52.526;13.390;2022-09-21T10:45:24;18.90;99.90
12254;DHT22;6189;52.526;13.390;2022-09-21T10:48:15;18.80;99.90
12254;DHT22;6189;52.526;13.390;2022-09-21T10:51:03;19.00;99.90
12254;DHT22;6189;52.526;13.390;2022-09-21T10:53:49;19.10;99.90
12254;DHT22;6189;52.526;13.390;2022-09-21T10:56:35;19.40;99.90
12254;DHT22;6189;52.526;13.390;2022-09-21T10:59:24;19.10;99.90
12254;DHT22;6189;52.526;13.390;2022-09-21T11:02:27;18.60;99.90
12254;DHT22;6189;52.526;13.390;2022-09-21T11:05:18;18.30;99.90
12254;DHT22;6189;52.526;13.390;2022-09-21T11:08:10;18.60;99.90
12254;DHT22;6189;52.526;13.390;2022-09-21T11:11:12;19.00;99.90
12254;DHT22;6189;52.526;13.390;2022-09-21T11:14:11;19.60;99.90
12254;DHT22;6189;52.526;13.390;2022-09-21T11:17:04;19.60;99.90
12254;DHT22;6189;52.526;13.390;2022-09-21T11:20:00;19.70;99.90
12254;DHT22;6189;52.526;13.390;2022-09-21T11:22:56;19.50;99.90
12254;DHT22;6189;52.526;13.390;2022-09-21T11:25:51;19.00;99.90
12254;DHT22;6189;52.526;13.390;2022-09-21T11:28:40;18.60;99.90
12254;DHT22;6189;52.526;13.390;2022-09-21T11:31:44;18.40;99.90
12254;DHT22;6189;52.526;13.390;2022-09-21T11:38:04;18.10;99.90
12254;DHT22;6189;52.526;13.390;2022-09-21T11:41:13;18.10;99.90
12254;DHT22;6189;52.526;13.390;2022-09-21T11:44:18;18.00;99.90
12254;DHT22;6189;52.526;13.390;2022-09-21T11:47:23;18.20;99.90
12254;DHT22;6189;52.526;13.390;2022-09-21T11:50:31;17.90;99.90
12254;DHT22;6189;52.526;13.390;2022-09-21T11:53:30;17.90;99.90
12254;DHT22;6189;52.526;13.390;2022-09-21T11:56:31;17.90;99.90
12254;DHT22;6189;52.526;13.390;2022-09-21T11:59:38;17.80;99.90
12254;DHT22;6189;52.526;13.390;2022-09-21T12:05:55;17.70;99.90
12254;DHT22;6189;52.526;13.390;2022-09-21T12:08:55;17.60;99.90
12254;DHT22;6189;52.526;13.390;2022-09-21T12:11:48;17.70;99.90
12254;DHT22;6189;52.526;13.390;2022-09-21T12:14:42;17.90;99.90
12254;DHT22;6189;52.526;13.390;2022-09-21T12:17:38;17.70;99.90
12254;DHT22;6189;52.526;13.390;2022-09-21T12:20:30;17.70;99.90
12254;DHT22;6189;52.526;13.390;2022-09-21T12:23:22;17.60;99.90
12254;DHT22;6189;52.526;13.390;2022-09-21T12:26:14;17.70;99.90
12254;DHT22;6189;52.526;13.390;2022-09-21T12:29:05;17.90;99.90
12254;DHT22;6189;52.526;13.390;2022-09-21T12:31:58;18.20;99.90
12254;DHT22;6189;52.526;13.390;2022-09-21T12:34:52;18.30;99.90
12254;DHT22;6189;52.526;13.390;2022-09-21T12:37:43;18.50;99.90
12254;DHT22;6189;52.526;13.390;2022-09-21T12:40:37;18.70;99.90
12254;DHT22;6189;52.526;13.390;2022-09-21T12:43:31;18.50;99.90
12254;DHT22;6189;52.526;13.390;2022-09-21T12:46:22;18.30;99.90
12254;DHT22;6189;52.526;13.390;2022-09-21T12:49:13;18.60;99.90
12254;DHT22;6189;52.526;13.390;2022-09-21T12:52:01;18.80;99.90
12254;DHT22;6189;52.526;13.390;2022-09-21T12:54:55;18.60;99.90
12254;DHT22;6189;52.526;13.390;2022-09-21T12:57:50;18.30;99.90
12254;DHT22;6189;52.526;13.390;2022-09-21T13:00:41;18.80;99.90
12254;DHT22;6189;52.526;13.390;2022-09-21T13:03:34;18.90;99.90
12254;DHT22;6189;52.526;13.390;2022-09-21T13:09:39;18.50;99.90
12254;DHT22;6189;52.526;13.390;2022-09-21T13:12:29;18.30;99.90
12254;DHT22;6189;52.526;13.390;2022-09-21T13:15:23;18.10;99.90
12254;DHT22;6189;52.526;13.390;2022-09-21T13:18:19;17.90;99.90
12254;DHT22;6189;52.526;13.390;2022-09-21T13:21:17;17.70;99.90
12254;DHT22;6189;52.526;13.390;2022-09-21T13:24:04;17.80;99.90
12254;DHT22;6189;52.526;13.390;2022-09-21T13:26:52;17.70;99.90
12254;DHT22;6189;52.526;13.390;2022-09-21T13:29:39;17.70;99.90
12254;DHT22;6189;52.526;13.390;2022-09-21T13:32:49;17.70;99.90
12254;DHT22;6189;52.526;13.390;2022-09-21T13:36:00;17.80;99.90
12254;DHT22;6189;52.526;13.390;2022-09-21T13:39:02;17.80;99.90
12254;DHT22;6189;52.526;13.390;2022-09-21T13:41:48;17.60;99.90
12254;DHT22;6189;52.526;13.390;2022-09-21T13:44:40;17.30;99.90
12254;DHT22;6189;52.526;13.390;2022-09-21T13:47:28;17.20;99.90
12254;DHT22;6189;52.526;13.390;2022-09-21T13:50:22;17.10;99.90
12254;DHT22;6189;52.526;13.390;2022-09-21T13:53:18;17.10;99.90
12254;DHT22;6189;52.526;13.390;2022-09-21T13:56:23;17.10;99.90
12254;DHT22;6189;52.526;13.390;2022-09-21T13:59:22;17.20;99.90
12254;DHT22;6189;52.526;13.390;2022-09-21T14:02:22;17.30;99.90
12254;DHT22;6189;52.526;13.390;2022-09-21T14:05:21;17.30;99.90
12254;DHT22;6189;52.526;13.390;2022-09-21T14:08:24;17.30;99.90
12254;DHT22;6189;52.526;13.390;2022-09-21T14:11:15;17.40;99.90
12254;DHT22;6189;52.526;13.390;2022-09-21T14:14:07;17.40;99.90
12254;DHT22;6189;52.526;13.390;2022-09-21T14:16:56;17.40;99.90
12254;DHT22;6189;52.526;13.390;2022-09-21T14:20:04;17.40;99.90
12254;DHT22;6189;52.526;13.390;2022-09-21T14:23:11;17.40;99.90
12254;DHT22;6189;52.526;13.390;2022-09-21T14:25:59;17.40;99.90
12254;DHT22;6189;52.526;13.390;2022-09-21T14:28:49;17.30;99.90
12254;DHT22;6189;52.526;13.390;2022-09-21T14:31:36;17.30;99.90
12254;DHT22;6189;52.526;13.390;2022-09-21T14:34:29;17.40;99.90
12254;DHT22;6189;52.526;13.390;2022-09-21T14:37:25;17.30;99.90
12254;DHT22;6189;52.526;13.390;2022-09-21T14:40:18;17.30;99.90
12254;DHT22;6189;52.526;13.390;2022-09-21T14:43:08;17.20;99.90
12254;DHT22;6189;52.526;13.390;2022-09-21T14:46:20;17.20;99.90
12254;DHT22;6189;52.526;13.390;2022-09-21T14:49:33;17.20;99.90
12254;DHT22;6189;52.526;13.390;2022-09-21T14:52:33;17.20;99.90
12254;DHT22;6189;52.526;13.390;2022-09-21T14:55:25;17.20;99.90
12254;DHT22;6189;52.526;13.390;2022-09-21T14:58:31;17.30;99.90
12254;DHT22;6189;52.526;13.390;2022-09-21T15:01:33;17.30;99.90
12254;DHT22;6189;52.526;13.390;2022-09-21T15:04:53;17.10;99.90
12254;DHT22;6189;52.526;13.390;2022-09-21T15:07:47;17.10;99.90
12254;DHT22;6189;52.526;13.390;2022-09-21T15:10:55;17.00;99.90
12254;DHT22;6189;52.526;13.390;2022-09-21T15:17:22;17.10;99.90
12254;DHT22;6189;52.526;13.390;2022-09-21T15:20:19;17.10;99.90
12254;DHT22;6189;52.526;13.390;2022-09-21T15:23:16;17.00;99.90
12254;DHT22;6189;52.526;13.390;2022-09-21T15:26:05;16.90;99.90
12254;DHT22;6189;52.526;13.390;2022-09-21T15:28:55;16.90;99.90
12254;DHT22;6189;52.526;13.390;2022-09-21T15:31:41;16.90;99.90
12254;DHT22;6189;52.526;13.390;2022-09-21T15:34:27;16.90;99.90
12254;DHT22;6189;52.526;13.390;2022-09-21T15:37:14;16.90;99.90
12254;DHT22;6189;52.526;13.390;2022-09-21T15:40:04;16.90;99.90
12254;DHT22;6189;52.526;13.390;2022-09-21T15:42:59;16.90;99.90
12254;DHT22;6189;52.526;13.390;2022-09-21T15:45:50;16.90;99.90
12254;DHT22;6189;52.526;13.390;2022-09-21T15:48:38;16.90;99.90
12254;DHT22;6189;52.526;13.390;2022-09-21T15:51:28;16.70;99.90
12254;DHT22;6189;52.526;13.390;2022-09-21T15:54:25;16.60;99.90
12254;DHT22;6189;52.526;13.390;2022-09-21T15:57:29;16.70;99.90
12254;DHT22;6189;52.526;13.390;2022-09-21T16:00:24;16.70;99.90
12254;DHT22;6189;52.526;13.390;2022-09-21T16:03:19;16.70;99.90
12254;DHT22;6189;52.526;13.390;2022-09-21T16:06:24;16.80;99.90
12254;DHT22;6189;52.526;13.390;2022-09-21T16:09:27;16.70;99.90
12254;DHT22;6189;52.526;13.390;2022-09-21T16:12:37;16.70;99.90
12254;DHT22;6189;52.526;13.390;2022-09-21T16:15:25;16.60;99.90
12254;DHT22;6189;52.526;13.390;2022-09-21T16:18:30;16.60;99.90
12254;DHT22;6189;52.526;13.390;2022-09-21T16:21:23;16.50;99.90
12254;DHT22;6189;52.526;13.390;2022-09-21T16:24:17;16.50;99.90
12254;DHT22;6189;52.526;13.390;2022-09-21T16:27:04;16.50;99.90
12254;DHT22;6189;52.526;13.390;2022-09-21T16:29:51;16.40;99.90
12254;DHT22;6189;52.526;13.390;2022-09-21T16:32:37;16.40;99.90
12254;DHT22;6189;52.526;13.390;2022-09-21T16:35:26;16.40;99.90
12254;DHT22;6189;52.526;13.390;2022-09-21T16:38:14;16.50;99.90
12254;DHT22;6189;52.526;13.390;2022-09-21T16:41:00;16.50;99.90
12254;DHT22;6189;52.526;13.390;2022-09-21T16:43:46;16.40;99.90
12254;DHT22;6189;52.526;13.390;2022-09-21T16:46:34;16.40;99.90
12254;DHT22;6189;52.526;13.390;2022-09-21T16:49:25;16.50;99.90
12254;DHT22;6189;52.526;13.390;2022-09-21T16:52:14;16.50;99.90
12254;DHT22;6189;52.526;13.390;2022-09-21T16:54:59;16.40;99.90
12254;DHT22;6189;52.526;13.390;2022-09-21T16:57:46;16.40;99.90
12254;DHT22;6189;52.526;13.390;2022-09-21T17:00:36;16.40;99.90
12254;DHT22;6189;52.526;13.390;2022-09-21T17:03:23;16.20;99.90
12254;DHT22;6189;52.526;13.390;2022-09-21T17:06:14;16.20;99.90
12254;DHT22;6189;52.526;13.390;2022-09-21T17:09:15;16.20;99.90
12254;DHT22;6189;52.526;13.390;2022-09-21T17:12:02;16.10;99.90
12254;DHT22;6189;52.526;13.390;2022-09-21T17:14:49;16.20;99.90
12254;DHT22;6189;52.526;13.390;2022-09-21T17:17:35;16.10;99.90
12254;DHT22;6189;52.526;13.390;2022-09-21T17:20:26;16.10;99.90
12254;DHT22;6189;52.526;13.390;2022-09-21T17:23:13;16.10;99.90
12254;DHT22;6189;52.526;13.390;2022-09-21T17:26:00;16.00;99.90
12254;DHT22;6189;52.526;13.390;2022-09-21T17:28:45;16.00;99.90
12254;DHT22;6189;52.526;13.390;2022-09-21T17:31:31;16.00;99.90
12254;DHT22;6189;52.526;13.390;2022-09-21T17:34:16;16.00;99.90
12254;DHT22;6189;52.526;13.390;2022-09-21T17:37:04;15.90;99.90
12254;DHT22;6189;52.526;13.390;2022-09-21T17:39:50;15.90;99.90
12254;DHT22;6189;52.526;13.390;2022-09-21T17:42:40;15.80;99.90
12254;DHT22;6189;52.526;13.390;2022-09-21T17:45:31;15.80;99.90
12254;DHT22;6189;52.526;13.390;2022-09-21T17:48:22;15.80;99.90
12254;DHT22;6189;52.526;13.390;2022-09-21T17:51:09;15.80;99.90
12254;DHT22;6189;52.526;13.390;2022-09-21T17:53:55;15.70;99.90
12254;DHT22;6189;52.526;13.390;2022-09-21T17:56:43;15.70;99.90
12254;DHT22;6189;52.526;13.390;2022-09-21T17:59:34;15.60;99.90
12254;DHT22;6189;52.526;13.390;2022-09-21T18:02:22;15.50;99.90
12254;DHT22;6189;52.526;13.390;2022-09-21T18:05:16;15.50;99.90
12254;DHT22;6189;52.526;13.390;2022-09-21T18:08:03;15.40;99.90
12254;DHT22;6189;52.526;13.390;2022-09-21T18:10:59;15.40;99.90